Time;durP1;ratioP1;P1;durP2;ratioP2;P2;SDS_P1;SDS_P2;PMS_P1;PMS_P2;Temp;Humidity;BMP_temperature;BMP_pressure;BME280_temperature;BME280_humidity;BME280_pressure;Samples;Min_cycle;Max_cycle;Signal;HPM_P1;HPM_P2
2021/04/17 00:00:06;;;;;;;9.57;4.63;;;;;;;7.44;71.88;102095.91;5074863;28;20408;-80
2021/04/17 00:02:37;;;;;;;10.50;5.03;;;;;;;7.35;71.96;102094.38;5094127;28;20055;-79
2021/04/17 00:05:05;;;;;;;12.25;5.75;;;;;;;7.35;72.25;102091.69;5093398;28;20032;-81
2021/04/17 00:07:30;;;;;;;9.88;4.55;;;;;;;7.35;72.11;102086.34;5085320;28;20028;-80
2021/04/17 00:09:56;;;;;;;16.83;6.15;;;;;;;7.34;72.52;102089.09;5087312;28;20031;-80
2021/04/17 00:12:21;;;;;;;11.43;6.85;;;;;;;7.38;71.94;102085.41;5072349;28;20087;-80
2021/04/17 00:14:49;;;;;;;13.60;6.13;;;;;;;7.39;71.46;102081.81;5067017;28;20064;-80
2021/04/17 00:17:16;;;;;;;11.57;5.70;;;;;;;7.29;71.19;102082.06;5073296;28;20028;-80
2021/04/17 00:19:43;;;;;;;12.88;6.35;;;;;;;7.27;71.30;102081.25;5082001;28;20051;-81
2021/04/17 00:22:09;;;;;;;18.40;7.45;;;;;;;7.31;71.54;102080.22;5093175;28;20097;-81
2021/04/17 00:24:34;;;;;;;14.52;5.60;;;;;;;7.22;72.00;102080.47;5092047;28;20450;-80
2021/04/17 00:27:02;;;;;;;10.95;5.78;;;;;;;7.20;72.32;102077.00;5074588;28;20036;-80
2021/04/17 00:29:28;;;;;;;10.75;5.07;;;;;;;7.25;72.86;102085.75;5085375;28;20039;-80
2021/04/17 00:31:53;;;;;;;13.73;5.97;;;;;;;7.22;72.54;102080.47;5072332;28;20389;-80
2021/04/17 00:34:19;;;;;;;10.68;5.47;;;;;;;7.16;72.85;102085.16;5076006;28;20100;-80
2021/04/17 00:36:44;;;;;;;12.07;5.28;;;;;;;7.11;72.80;102077.25;5071632;28;20043;-80
2021/04/17 00:39:09;;;;;;;10.30;6.07;;;;;;;7.10;72.88;102080.84;5089932;28;20035;-80
2021/04/17 00:41:35;;;;;;;10.65;6.18;;;;;;;7.12;72.95;102073.66;5092173;28;20067;-79
2021/04/17 00:44:02;;;;;;;15.40;6.30;;;;;;;7.15;72.47;102068.25;5077063;28;20637;-79
2021/04/17 00:46:28;;;;;;;13.77;9.55;;;;;;;7.16;72.39;102071.81;5076730;28;20112;-81
2021/04/17 00:48:54;;;;;;;14.52;9.80;;;;;;;6.97;72.97;102068.78;5075485;28;20505;-79
2021/04/17 00:51:19;;;;;;;13.13;7.05;;;;;;;6.97;73.20;102071.44;5074106;28;20027;-80
2021/04/17 00:53:46;;;;;;;12.18;6.00;;;;;;;6.96;73.31;102071.47;5073622;28;20492;-81
2021/04/17 00:56:12;;;;;;;10.00;5.35;;;;;;;6.91;73.27;102068.94;5072770;28;20028;-80
2021/04/17 00:58:39;;;;;;;10.60;5.63;;;;;;;6.81;73.84;102062.97;5073836;28;20026;-80
2021/04/17 01:01:06;;;;;;;13.95;5.50;;;;;;;6.87;74.13;102061.94;5080158;28;20118;-81
2021/04/17 01:03:48;;;;;;;12.43;6.20;;;;;;;6.82;74.41;102069.19;5073363;28;20032;-80
2021/04/17 01:06:26;;;;;;;11.70;6.50;;;;;;;6.73;74.87;102061.41;5072241;28;20024;-81
2021/04/17 01:09:10;;;;;;;10.10;5.32;;;;;;;6.74;74.66;102057.84;5090177;28;20042;-80
2021/04/17 01:11:47;;;;;;;11.95;6.15;;;;;;;6.66;74.86;102057.19;5086834;28;20031;-81
2021/04/17 01:14:15;;;;;;;10.00;6.05;;;;;;;6.60;75.01;102063.56;5072818;28;20032;-80
2021/04/17 01:16:42;;;;;;;9.90;5.80;;;;;;;6.58;74.99;102061.84;5072502;28;20059;-79
2021/04/17 01:19:12;;;;;;;13.52;6.50;;;;;;;6.57;75.01;102062.75;5069890;28;20119;-79
2021/04/17 01:21:39;;;;;;;17.05;5.93;;;;;;;6.49;75.61;102063.81;5073592;28;20036;-80
2021/04/17 01:24:15;;;;;;;14.93;6.55;;;;;;;6.49;75.45;102071.81;5077178;28;20036;-80
2021/04/17 01:26:42;;;;;;;9.98;6.00;;;;;;;6.49;75.33;102058.50;5071723;28;20043;-80
2021/04/17 01:29:07;;;;;;;13.57;6.63;;;;;;;6.46;75.51;102060.38;5088493;28;20036;-79
2021/04/17 01:31:34;;;;;;;13.48;6.03;;;;;;;6.44;75.73;102065.75;5072905;28;20028;-80
2021/04/17 01:34:02;;;;;;;15.35;6.53;;;;;;;6.41;75.73;102062.28;5090470;28;20036;-80
2021/04/17 01:36:30;;;;;;;12.60;6.80;;;;;;;6.39;75.56;102070.31;5089201;28;20031;-79
2021/04/17 01:39:05;;;;;;;13.38;7.35;;;;;;;6.37;75.53;102066.81;5069399;28;20086;-80
2021/04/17 01:41:38;;;;;;;12.70;6.80;;;;;;;6.31;75.88;102071.41;5070464;28;20032;-79
2021/04/17 01:44:11;;;;;;;14.02;6.72;;;;;;;6.24;75.94;102064.47;5070421;28;20038;-79
2021/04/17 01:46:45;;;;;;;;;;;;;;;6.19;76.24;102064.59;5082797;28;20032;-80
2021/04/17 01:49:12;;;;;;;;;;;;;;;6.12;76.65;102060.34;5084343;28;19919;-80
2021/04/17 01:51:39;;;;;;;15.50;6.85;;;;;;;6.09;76.62;102060.44;5085564;28;19919;-80
2021/04/17 01:54:12;;;;;;;13.60;6.95;;;;;;;6.06;77.00;102066.69;5087824;28;20028;-79
2021/04/17 01:56:38;;;;;;;13.95;6.15;;;;;;;6.05;76.82;102066.72;5081651;28;20500;-80
2021/04/17 01:59:05;;;;;;;13.02;7.18;;;;;;;5.99;77.36;102058.88;5072575;28;20028;-80
2021/04/17 02:01:31;;;;;;;11.25;6.28;;;;;;;5.94;77.60;102060.78;5089181;28;20031;-80
2021/04/17 02:03:56;;;;;;;16.77;6.05;;;;;;;5.87;78.13;102059.13;5097261;28;20027;-80
2021/04/17 02:06:22;;;;;;;10.55;5.97;;;;;;;5.83;78.21;102049.47;5070810;28;20028;-80
2021/04/17 02:08:47;;;;;;;13.57;5.57;;;;;;;5.81;78.42;102053.94;5082166;28;20115;-80
2021/04/17 02:11:13;;;;;;;13.00;6.00;;;;;;;5.81;78.29;102054.81;5083762;28;20028;-80
2021/04/17 02:13:40;;;;;;;11.00;5.93;;;;;;;5.76;78.45;102053.19;5072049;28;20034;-80
2021/04/17 02:16:35;;;;;;;11.73;6.00;;;;;;;5.73;78.50;102055.94;5072677;28;20042;-80
2021/04/17 02:19:04;;;;;;;11.93;5.20;;;;;;;5.73;78.55;102055.94;5062464;28;20097;-79
2021/04/17 02:21:37;;;;;;;11.20;5.55;;;;;;;5.64;78.89;102049.91;5068063;28;20531;-81
2021/04/17 02:24:05;;;;;;;9.77;5.38;;;;;;;5.61;79.05;102052.66;5084397;28;20039;-80
2021/04/17 02:26:30;;;;;;;10.80;5.80;;;;;;;5.57;79.27;102058.06;5065851;28;20046;-80
2021/04/17 02:28:56;;;;;;;13.05;5.10;;;;;;;5.52;79.33;102047.50;5072023;28;20020;-80
2021/04/17 02:31:24;;;;;;;10.40;5.40;;;;;;;5.51;79.44;102059.06;5089357;28;20439;-79
2021/04/17 02:33:49;;;;;;;12.20;5.50;;;;;;;5.47;79.54;102053.84;5070890;28;20024;-78
2021/04/17 02:36:14;;;;;;;16.75;6.85;;;;;;;5.41;79.77;102049.53;5068682;28;20458;-80
2021/04/17 02:38:40;;;;;;;10.13;5.13;;;;;;;5.34;80.07;102047.91;5088543;28;20036;-80
2021/04/17 02:41:05;;;;;;;11.68;5.47;;;;;;;5.29;80.40;102041.81;5085096;28;20040;-80
2021/04/17 02:43:31;;;;;;;15.48;6.38;;;;;;;5.25;80.64;102048.09;5063490;28;20082;-79
2021/04/17 02:45:56;;;;;;;11.80;5.93;;;;;;;5.21;80.83;102043.75;5078662;28;20033;-79
2021/04/17 02:48:22;;;;;;;9.75;5.30;;;;;;;5.18;81.02;102046.50;5083999;28;20032;-79
2021/04/17 02:50:47;;;;;;;12.25;5.88;;;;;;;5.13;81.13;102038.59;5095575;23;20040;-75
2021/04/17 02:53:12;;;;;;;14.43;5.97;;;;;;;5.10;81.24;102045.78;5084563;28;20059;-76
2021/04/17 02:55:38;;;;;;;11.20;5.60;;;;;;;5.02;81.30;102045.03;5078169;28;20036;-75
2021/04/17 02:58:03;;;;;;;12.95;5.53;;;;;;;4.97;81.59;102046.94;5066773;28;20089;-76
2021/04/17 03:00:29;;;;;;;14.82;6.18;;;;;;;4.95;81.96;102043.41;5045168;28;20029;-78
2021/04/17 03:02:55;;;;;;;10.45;5.60;;;;;;;4.91;82.37;102047.03;5059625;28;20044;-77
2021/04/17 03:05:20;;;;;;;12.70;5.47;;;;;;;4.87;82.26;102047.13;5066569;28;20036;-77
2021/04/17 03:07:47;;;;;;;10.88;5.68;;;;;;;4.84;82.26;102048.94;5067072;28;20029;-77
2021/04/17 03:10:12;;;;;;;11.65;5.70;;;;;;;4.77;82.38;102045.53;5067061;28;20431;-77
2021/04/17 03:12:38;;;;;;;12.07;5.38;;;;;;;4.69;82.83;102049.25;5064380;28;20044;-78
2021/04/17 03:15:05;;;;;;;10.63;5.45;;;;;;;4.62;83.00;102051.16;5054984;28;20119;-78
2021/04/17 03:17:30;;;;;;;11.75;5.72;;;;;;;4.57;83.51;102058.31;5068699;28;20027;-78
2021/04/17 03:19:56;;;;;;;12.00;6.00;;;;;;;4.56;83.67;102055.72;5066603;28;20111;-77
2021/04/17 03:22:21;;;;;;;11.00;5.50;;;;;;;4.55;83.76;102054.81;5070444;28;20033;-77
2021/04/17 03:24:47;;;;;;;10.38;5.22;;;;;;;4.55;83.77;102052.16;5069233;28;20033;-77
2021/04/17 03:27:12;;;;;;;13.15;5.95;;;;;;;4.55;83.78;102053.94;5069770;28;20032;-77
2021/04/17 03:29:38;;;;;;;14.10;6.97;;;;;;;4.51;83.82;102053.09;5069558;28;20032;-77
2021/04/17 03:32:04;;;;;;;11.88;5.72;;;;;;;4.48;84.07;102053.19;5066538;28;20043;-77
2021/04/17 03:34:29;;;;;;;14.55;6.13;;;;;;;4.47;84.20;102051.41;5069691;28;20455;-78
2021/04/17 03:36:55;;;;;;;16.10;6.55;;;;;;;4.42;84.54;102054.16;5067472;28;20029;-77
2021/04/17 03:39:20;;;;;;;13.32;6.00;;;;;;;4.41;84.67;102051.53;5071676;28;20443;-77
2021/04/17 03:41:46;;;;;;;13.75;6.63;;;;;;;4.39;84.66;102053.31;5071652;28;20112;-77
2021/04/17 03:44:11;;;;;;;13.38;6.50;;;;;;;4.37;84.80;102052.50;5064482;28;20051;-77
2021/04/17 03:46:37;;;;;;;12.65;5.18;;;;;;;4.33;84.92;102049.00;5068184;28;20037;-77
2021/04/17 03:49:03;;;;;;;12.32;6.55;;;;;;;4.32;84.83;102051.72;5071293;28;20391;-78
2021/04/17 03:51:28;;;;;;;12.60;6.30;;;;;;;4.31;84.86;102055.25;5064005;28;20037;-77
2021/04/17 03:53:54;;;;;;;10.63;5.82;;;;;;;4.24;85.13;102056.25;5068232;28;20107;-77
2021/04/17 03:56:20;;;;;;;11.90;5.97;;;;;;;4.21;85.32;102058.97;5066960;28;20028;-78
2021/04/17 03:58:45;;;;;;;9.70;5.55;;;;;;;4.16;85.67;102060.81;5071473;28;20035;-77
2021/04/17 04:01:11;;;;;;;11.93;6.35;;;;;;;4.13;86.15;102074.19;5055684;28;20040;-77
2021/04/17 04:03:37;;;;;;;12.00;6.10;;;;;;;4.08;86.06;102071.56;5080418;28;20032;-77
2021/04/17 04:06:02;;;;;;;13.35;6.35;;;;;;;4.07;86.23;102072.50;5067262;28;20037;-77
2021/04/17 04:08:28;;;;;;;10.93;6.28;;;;;;;4.00;86.56;102077.03;5068452;28;20139;-78
2021/04/17 04:10:53;;;;;;;10.70;6.03;;;;;;;3.98;86.79;102072.63;5069111;28;20033;-77
2021/04/17 04:13:19;;;;;;;17.85;6.88;;;;;;;3.95;86.93;102078.84;5068901;28;20463;-77
2021/04/17 04:15:45;;;;;;;15.18;6.10;;;;;;;3.95;87.12;102072.69;5068949;28;20035;-77
2021/04/17 04:18:10;;;;;;;12.25;6.68;;;;;;;3.94;87.11;102077.13;5071499;28;20036;-78
2021/04/17 04:20:35;;;;;;;14.35;7.75;;;;;;;3.93;86.96;102075.38;5066753;28;20036;-77
2021/04/17 04:23:02;;;;;;;13.40;5.60;;;;;;;3.93;86.79;102074.47;5069331;28;20128;-77
2021/04/17 04:25:28;;;;;;;13.32;6.15;;;;;;;3.91;86.88;102079.81;5069915;28;20477;-77
2021/04/17 04:27:55;;;;;;;15.82;6.22;;;;;;;3.90;86.99;102080.69;5070875;28;20033;-77
2021/04/17 04:30:22;;;;;;;12.48;6.65;;;;;;;3.87;87.03;102086.09;5068374;28;20029;-77
2021/04/17 04:32:47;;;;;;;16.13;5.78;;;;;;;3.86;87.09;102084.31;5070014;28;20067;-77
2021/04/17 04:35:13;;;;;;;12.25;6.63;;;;;;;3.83;87.35;102084.34;5071012;28;20063;-77
2021/04/17 04:37:39;;;;;;;19.50;7.95;;;;;;;3.83;87.80;102088.78;5069979;28;20100;-78
2021/04/17 04:40:06;;;;;;;17.10;7.97;;;;;;;3.86;88.02;102089.63;5069074;28;20036;-76
2021/04/17 04:42:32;;;;;;;19.35;8.00;;;;;;;3.82;88.29;102090.59;5059081;28;20016;-77
2021/04/17 04:44:59;;;;;;;14.90;6.82;;;;;;;3.80;88.74;102088.84;5064181;28;20440;-77
2021/04/17 04:47:24;;;;;;;15.73;6.80;;;;;;;3.77;88.97;102087.09;5068111;28;20056;-77
2021/04/17 04:49:50;;;;;;;16.75;6.90;;;;;;;3.75;89.08;102088.91;5051887;28;20452;-77
2021/04/17 04:52:15;;;;;;;15.60;6.63;;;;;;;3.75;89.12;102086.25;5070443;28;20036;-77
2021/04/17 04:54:40;;;;;;;15.43;6.75;;;;;;;3.76;88.78;102088.03;5066882;28;20028;-77
2021/04/17 04:57:06;;;;;;;16.48;6.28;;;;;;;3.73;88.88;102093.38;5062454;28;20129;-77
2021/04/17 04:59:32;;;;;;;11.43;5.75;;;;;;;3.72;88.78;102086.28;5061780;28;21351;-77
2021/04/17 05:01:57;;;;;;;11.40;6.00;;;;;;;3.72;88.96;102090.72;5065009;28;20032;-77
2021/04/17 05:04:23;;;;;;;11.00;5.95;;;;;;;3.71;88.93;102089.84;5067515;28;20032;-77
2021/04/17 05:06:48;;;;;;;19.40;6.38;;;;;;;3.72;88.82;102088.94;5055971;28;20534;-77
2021/04/17 05:09:13;;;;;;;15.50;6.53;;;;;;;3.73;88.88;102089.81;5069553;28;20025;-77
2021/04/17 05:11:39;;;;;;;45.60;17.95;;;;;;;3.70;89.17;102097.84;5064358;28;20394;-77
2021/04/17 05:14:04;;;;;;;26.98;9.25;;;;;;;3.69;89.35;102091.66;5067971;28;20037;-78
2021/04/17 05:16:30;;;;;;;15.45;7.47;;;;;;;3.71;89.62;102097.81;5064345;28;20476;-77
2021/04/17 05:18:55;;;;;;;17.35;7.88;;;;;;;3.69;89.88;102096.97;5068940;28;20145;-77
2021/04/17 05:21:21;;;;;;;26.95;11.15;;;;;;;3.69;90.05;102096.97;5064099;28;20041;-76
2021/04/17 05:23:46;;;;;;;17.92;8.25;;;;;;;3.69;90.06;102099.63;5067912;28;20032;-76
2021/04/17 05:26:12;;;;;;;24.88;9.63;;;;;;;3.69;90.11;102098.75;5068002;28;20724;-78
2021/04/17 05:28:37;;;;;;;15.57;7.38;;;;;;;3.68;90.21;102095.22;5062460;28;20032;-77
2021/04/17 05:31:02;;;;;;;17.17;7.50;;;;;;;3.69;90.31;102102.28;5066765;28;20082;-77
2021/04/17 05:33:28;;;;;;;14.63;6.13;;;;;;;3.71;90.22;102092.50;5068120;28;20028;-77
2021/04/17 05:35:53;;;;;;;15.57;6.55;;;;;;;3.73;90.08;102098.66;5063969;28;20035;-77
2021/04/17 05:38:19;;;;;;;14.05;6.65;;;;;;;3.74;89.98;102105.75;5049748;28;20464;-78
2021/04/17 05:40:44;;;;;;;15.25;6.03;;;;;;;3.73;90.30;102098.66;5064932;28;20140;-77
2021/04/17 05:43:10;;;;;;;19.35;6.60;;;;;;;3.77;90.23;102103.03;5063030;28;20036;-77
2021/04/17 05:45:35;;;;;;;15.38;6.82;;;;;;;3.79;90.29;102106.56;5060538;28;20082;-77
2021/04/17 05:48:01;;;;;;;14.30;6.22;;;;;;;3.82;90.35;102098.56;5067130;28;20079;-77
2021/04/17 05:50:26;;;;;;;15.00;6.30;;;;;;;3.83;90.60;102108.25;5068737;28;20099;-77
2021/04/17 05:52:52;;;;;;;12.90;5.93;;;;;;;3.97;90.62;102103.63;5067674;28;20032;-77
2021/04/17 05:55:17;;;;;;;13.45;6.10;;;;;;;3.96;90.65;102101.88;5066115;28;20068;-77
2021/04/17 05:57:43;;;;;;;16.08;6.35;;;;;;;4.02;90.45;102101.78;5067307;28;20439;-76
2021/04/17 06:00:09;;;;;;;11.82;6.47;;;;;;;4.11;90.55;102099.88;5068864;28;20028;-77
2021/04/17 06:02:35;;;;;;;15.50;5.90;;;;;;;4.15;90.46;102101.56;5064184;28;20067;-77
2021/04/17 06:05:00;;;;;;;12.60;5.47;;;;;;;4.23;89.97;102099.69;5067928;28;20064;-77
2021/04/17 06:07:26;;;;;;;12.52;6.05;;;;;;;4.24;90.26;102112.06;5056172;28;20075;-76
2021/04/17 06:09:51;;;;;;;14.80;6.63;;;;;;;4.28;89.88;102108.47;5061223;28;20024;-78
2021/04/17 06:12:17;;;;;;;15.85;6.78;;;;;;;4.34;89.78;102108.34;5082965;28;20547;-76
2021/04/17 06:14:42;;;;;;;18.35;7.30;;;;;;;4.39;89.75;102107.38;5062099;28;20145;-77
2021/04/17 06:17:07;;;;;;;15.90;7.65;;;;;;;4.42;89.80;102107.34;5067529;28;20024;-77
2021/04/17 06:19:33;;;;;;;13.38;7.15;;;;;;;4.54;89.38;102111.56;5066256;28;20109;-77
2021/04/17 06:21:58;;;;;;;19.90;7.13;;;;;;;4.66;89.46;102110.47;5066746;28;20203;-77
2021/04/17 06:24:24;;;;;;;17.48;7.30;;;;;;;4.71;88.92;102109.47;5066933;28;20028;-77
2021/04/17 06:26:49;;;;;;;14.43;6.78;;;;;;;4.72;89.10;102111.25;5066040;28;20117;-78
2021/04/17 06:29:15;;;;;;;15.52;7.22;;;;;;;4.72;89.64;102107.69;5063394;28;20036;-76
2021/04/17 06:31:40;;;;;;;20.13;6.75;;;;;;;4.74;88.99;102108.56;5062177;28;20035;-77
2021/04/17 06:34:06;;;;;;;20.92;7.25;;;;;;;4.81;89.20;102111.06;5062598;28;20047;-77
2021/04/17 06:36:31;;;;;;;17.75;7.60;;;;;;;4.93;88.56;102104.66;5066412;28;20627;-78
2021/04/17 06:38:57;;;;;;;17.85;7.38;;;;;;;5.11;88.05;102098.09;5063357;28;20704;-77
2021/04/17 06:41:23;;;;;;;15.55;7.38;;;;;;;5.28;87.05;102101.28;5065659;28;20411;-77
2021/04/17 06:43:49;;;;;;;16.85;7.22;;;;;;;5.33;87.10;102109.19;5062198;28;20033;-77
2021/04/17 06:46:16;;;;;;;18.10;6.95;;;;;;;5.49;85.90;102103.50;5060941;28;20078;-78
2021/04/17 06:48:43;;;;;;;22.90;7.57;;;;;;;5.69;84.39;102100.41;5063139;28;20032;-78
2021/04/17 06:51:14;;;;;;;17.90;8.27;;;;;;;5.92;83.85;102107.94;5064286;28;20066;-78
2021/04/17 06:53:41;;;;;;;17.33;7.53;;;;;;;6.22;82.70;102107.22;5065682;28;20032;-78
2021/04/17 06:56:07;;;;;;;21.00;7.35;;;;;;;6.56;78.89;102106.34;5067033;28;20233;-77
2021/04/17 06:58:33;;;;;;;15.60;6.85;;;;;;;7.02;77.68;102104.22;5070298;28;20353;-77
2021/04/17 07:01:00;;;;;;;18.00;6.80;;;;;;;7.74;75.22;102111.03;5050573;28;20036;-77
2021/04/17 07:03:25;;;;;;;16.38;6.75;;;;;;;8.48;70.67;102115.81;5062517;28;20124;-79
2021/04/17 07:05:50;;;;;;;17.45;8.40;;;;;;;9.23;68.72;102109.56;5067028;28;20186;-77
2021/04/17 07:08:16;;;;;;;28.23;12.25;;;;;;;9.75;64.88;102108.47;5069994;28;20044;-77
2021/04/17 07:10:41;;;;;;;17.67;6.65;;;;;;;10.24;62.01;102114.63;5063295;28;20032;-78
2021/04/17 07:13:15;;;;;;;21.13;6.80;;;;;;;10.77;60.35;102106.13;5070928;28;20492;-77
2021/04/17 07:15:41;;;;;;;16.42;6.88;;;;;;;11.12;60.19;102110.81;5068150;28;20032;-78
2021/04/17 07:18:25;;;;;;;22.05;7.35;;;;;;;11.74;58.29;102107.97;5066286;28;20036;-79
2021/04/17 07:20:51;;;;;;;18.40;6.20;;;;;;;12.04;56.48;102119.09;5064363;28;20037;-75
2021/04/17 07:23:32;;;;;;;15.50;6.40;;;;;;;12.28;54.04;102124.25;5070716;28;20086;-77
2021/04/17 07:26:18;;;;;;;13.10;5.82;;;;;;;12.34;53.43;102111.38;5067247;28;20037;-78
2021/04/17 07:29:05;;;;;;;13.70;5.25;;;;;;;12.55;53.54;102117.50;5054063;28;20036;-78
2021/04/17 07:31:31;;;;;;;14.13;5.45;;;;;;;12.53;52.56;102122.06;5046477;28;20115;-78
2021/04/17 07:34:10;;;;;;;16.98;5.75;;;;;;;12.64;51.75;102114.34;5071688;28;20032;-78
2021/04/17 07:36:58;;;;;;;14.60;6.53;;;;;;;12.90;54.09;102115.69;5065715;28;20031;-77
2021/04/17 07:39:28;;;;;;;10.07;5.75;;;;;;;13.07;51.88;102114.81;5063132;28;20036;-77
2021/04/17 07:42:07;;;;;;;12.95;6.10;;;;;;;13.41;50.12;102116.63;5070062;28;20399;-77
2021/04/17 07:44:35;;;;;;;11.68;5.63;;;;;;;13.44;47.82;102117.34;5085875;28;20374;-77
2021/04/17 07:47:01;;;;;;;11.30;5.80;;;;;;;13.68;48.58;102120.53;5068587;28;20044;-76
2021/04/17 07:49:27;;;;;;;11.45;6.07;;;;;;;13.58;48.96;102119.25;5070307;28;20032;-78
2021/04/17 07:52:12;;;;;;;12.13;6.00;;;;;;;13.71;49.15;102115.81;5066413;28;20151;-77
2021/04/17 07:55:00;;;;;;;16.00;5.57;;;;;;;13.63;48.50;102118.09;5069368;28;20024;-78
2021/04/17 07:57:33;;;;;;;14.80;5.15;;;;;;;13.86;47.88;102124.03;5065094;28;20382;-77
2021/04/17 07:59:59;;;;;;;;;;;;;;;13.85;46.94;102111.47;5060656;28;20039;-77
2021/04/17 08:02:26;;;;;;;11.43;5.22;;;;;;;14.16;47.13;102115.06;5069201;28;20007;-77
2021/04/17 08:04:52;;;;;;;15.23;5.60;;;;;;;14.49;47.79;102111.41;5068083;28;20492;-78
2021/04/17 08:07:19;;;;;;;17.52;6.03;;;;;;;14.61;47.79;102112.53;5071377;28;20032;-77
2021/04/17 08:09:47;;;;;;;11.35;5.95;;;;;;;14.93;46.12;102111.47;5068897;28;20034;-79
2021/04/17 08:12:16;;;;;;;16.77;5.70;;;;;;;14.97;45.67;102116.59;5069034;28;20205;-77
2021/04/17 08:14:42;;;;;;;10.90;5.60;;;;;;;15.05;46.49;102110.75;5068678;28;20495;-78
2021/04/17 08:17:08;;;;;;;11.27;5.43;;;;;;;14.91;47.46;102105.28;5070412;28;20036;-77
2021/04/17 08:19:33;;;;;;;13.55;5.70;;;;;;;14.83;47.51;102108.44;5070447;28;20037;-77
2021/04/17 08:21:59;;;;;;;14.57;5.90;;;;;;;15.00;44.82;102103.88;5053631;28;20071;-77
2021/04/17 08:24:26;;;;;;;13.63;6.00;;;;;;;15.19;44.83;102105.31;5071925;28;20032;-77
2021/04/17 08:26:57;;;;;;;12.90;5.20;;;;;;;15.29;43.56;102095.69;5069939;28;20119;-77
2021/04/17 08:29:52;;;;;;;23.65;6.10;;;;;;;15.22;43.31;102099.75;5054788;28;20481;-77
2021/04/17 08:32:37;;;;;;;10.82;5.07;;;;;;;15.27;45.75;102094.91;5070304;28;20062;-78
2021/04/17 08:35:16;;;;;;;11.27;5.05;;;;;;;15.43;43.34;102099.38;5068484;28;20032;-77
2021/04/17 08:37:51;;;;;;;10.52;5.13;;;;;;;15.29;42.85;102090.28;5068806;28;20772;-78
2021/04/17 08:40:36;;;;;;;10.60;4.80;;;;;;;15.51;42.21;102094.34;5070365;28;20036;-77
2021/04/17 08:43:29;;;;;;;8.90;4.75;;;;;;;15.64;44.72;102093.50;5068353;28;20044;-77
2021/04/17 08:46:13;;;;;;;10.77;3.90;;;;;;;15.88;43.24;102093.75;5052483;28;20047;-75
2021/04/17 08:48:49;;;;;;;7.05;3.83;;;;;;;15.44;44.32;102092.97;5062842;28;20025;-77
2021/04/17 08:51:20;;;;;;;13.57;4.45;;;;;;;15.87;45.19;102092.00;5059229;28;20507;-79
2021/04/17 08:53:46;;;;;;;11.75;3.95;;;;;;;15.99;43.66;102096.63;5069026;28;20036;-77
2021/04/17 08:56:12;;;;;;;13.98;3.80;;;;;;;16.24;43.00;102089.59;5067504;28;20535;-79
2021/04/17 08:58:37;;;;;;;8.90;3.70;;;;;;;16.06;41.34;102089.84;5069928;28;20027;-77
2021/04/17 09:01:10;;;;;;;12.43;4.88;;;;;;;15.64;43.67;102089.91;5072371;28;20032;-78
2021/04/17 09:03:47;;;;;;;12.50;3.78;;;;;;;15.60;43.68;102083.84;5063976;28;20036;-79
2021/04/17 09:06:24;;;;;;;10.30;4.10;;;;;;;15.59;43.52;102081.22;5063913;28;20048;-78
2021/04/17 09:09:16;;;;;;;7.78;3.40;;;;;;;15.56;40.02;102089.53;5069737;28;20032;-78
2021/04/17 09:11:44;;;;;;;7.10;3.15;;;;;;;15.38;39.39;102089.69;5057197;28;20513;-78
2021/04/17 09:14:28;;;;;;;13.88;4.53;;;;;;;15.07;40.49;102092.56;5071109;28;20029;-77
2021/04/17 09:16:55;;;;;;;10.15;4.68;;;;;;;15.24;42.44;102087.00;5071156;28;20057;-77
2021/04/17 09:19:39;;;;;;;9.70;4.13;;;;;;;15.50;41.90;102096.16;5069189;28;20193;-77
2021/04/17 09:22:24;;;;;;;14.57;3.25;;;;;;;15.39;42.36;102086.03;5069645;28;20025;-79
2021/04/17 09:25:09;;;;;;;8.73;3.90;;;;;;;15.39;40.91;102086.03;5068379;28;20469;-78
2021/04/17 09:27:50;;;;;;;7.45;3.10;;;;;;;14.87;41.73;102082.09;5050459;28;20032;-78
2021/04/17 09:30:19;;;;;;;9.73;3.25;;;;;;;15.11;41.77;102086.03;5078844;28;20700;-78
2021/04/17 09:32:46;;;;;;;8.07;3.53;;;;;;;15.09;43.25;102081.66;5064689;28;20032;-77
2021/04/17 09:35:28;;;;;;;15.73;4.30;;;;;;;15.23;42.07;102074.44;5060407;28;20036;-78
2021/04/17 09:38:01;;;;;;;6.85;3.47;;;;;;;15.21;44.12;102076.34;5064910;28;20032;-77
2021/04/17 09:40:37;;;;;;;12.95;3.28;;;;;;;14.95;39.93;102077.09;5064267;28;20079;-79
2021/04/17 09:43:04;;;;;;;10.95;3.55;;;;;;;15.25;41.14;102075.19;5044839;28;20061;-77
2021/04/17 09:45:39;;;;;;;6.10;3.50;;;;;;;15.45;42.50;102073.94;5062842;28;20044;-79
2021/04/17 09:48:09;;;;;;;9.38;3.15;;;;;;;15.54;39.16;102067.13;5065588;28;20435;-78
2021/04/17 09:50:37;;;;;;;12.80;3.72;;;;;;;15.57;39.19;102058.78;5062052;28;20512;-79
2021/04/17 09:53:13;;;;;;;6.85;3.20;;;;;;;15.55;39.16;102060.75;5065683;28;20037;-76
2021/04/17 09:56:12;;;;;;;8.98;3.13;;;;;;;15.59;38.86;102054.16;5065183;28;20111;-78
2021/04/17 09:58:41;;;;;;;10.15;4.05;;;;;;;15.12;41.89;102049.03;5063311;28;20040;-78
2021/04/17 10:01:10;;;;;;;7.63;3.13;;;;;;;15.17;39.25;102047.78;5067388;28;20488;-78
2021/04/17 10:03:37;;;;;;;14.63;3.35;;;;;;;14.81;41.33;102036.53;5051980;28;20035;-78
2021/04/17 10:06:04;;;;;;;8.52;3.50;;;;;;;15.19;43.42;102029.59;5069061;28;20110;-78
2021/04/17 10:08:35;;;;;;;6.55;3.20;;;;;;;15.13;40.81;102032.69;5063197;28;20063;-78
2021/04/17 10:11:03;;;;;;;7.85;3.25;;;;;;;14.86;40.90;102029.88;5066833;28;20032;-78
2021/04/17 10:13:43;;;;;;;8.90;3.38;;;;;;;14.90;39.49;102033.25;5060155;28;20493;-78
2021/04/17 10:16:10;;;;;;;8.60;3.53;;;;;;;15.01;40.08;102022.63;5063198;28;20701;-78
2021/04/17 10:18:38;;;;;;;6.72;2.72;;;;;;;15.03;40.90;102026.13;5066254;28;20031;-79
2021/04/17 10:21:05;;;;;;;6.47;2.78;;;;;;;14.84;41.78;102020.09;5060832;28;20049;-78
2021/04/17 10:23:31;;;;;;;12.80;3.28;;;;;;;14.54;43.09;102010.19;5057755;28;20036;-77
2021/04/17 10:26:08;;;;;;;7.70;3.45;;;;;;;14.93;42.26;102011.44;5063314;28;20024;-77
2021/04/17 10:28:35;;;;;;;9.10;3.08;;;;;;;15.29;41.09;102009.13;5061258;28;20041;-79
2021/04/17 10:31:07;;;;;;;6.10;3.28;;;;;;;15.36;39.57;102009.59;5061528;28;20037;-78
2021/04/17 10:33:33;;;;;;;6.87;3.33;;;;;;;15.53;40.40;102005.84;5062064;28;20033;-78
2021/04/17 10:36:00;;;;;;;8.18;3.40;;;;;;;15.05;39.19;101994.44;5063050;28;20036;-78
2021/04/17 10:38:31;;;;;;;12.80;3.00;;;;;;;15.04;41.60;101998.13;5067942;28;20042;-78
2021/04/17 10:41:00;;;;;;;11.82;3.15;;;;;;;15.10;40.56;101996.84;5068422;28;20086;-78
2021/04/17 10:43:27;;;;;;;9.02;3.25;;;;;;;14.90;40.08;101993.56;5061263;28;20847;-77
2021/04/17 10:45:56;;;;;;;7.82;3.55;;;;;;;14.90;39.05;101995.38;5065098;28;20082;-77
2021/04/17 10:48:24;;;;;;;8.95;3.03;;;;;;;14.97;39.86;101988.63;5050184;28;20039;-78
2021/04/17 10:51:02;;;;;;;6.53;2.60;;;;;;;15.27;38.79;101985.81;5069470;28;20036;-78
2021/04/17 10:53:41;;;;;;;5.10;2.38;;;;;;;15.74;40.01;101982.78;5044757;28;20037;-77
2021/04/17 10:56:13;;;;;;;7.72;2.83;;;;;;;15.69;39.23;101984.91;5065435;28;20107;-76
2021/04/17 10:58:41;;;;;;;6.97;2.45;;;;;;;15.52;40.05;101982.41;5063006;28;20032;-79
2021/04/17 11:01:09;;;;;;;4.43;2.13;;;;;;;15.51;38.61;101980.66;5065689;28;20029;-79
2021/04/17 11:03:45;;;;;;;4.28;2.30;;;;;;;15.55;36.51;101976.84;5069297;28;20107;-77
2021/04/17 11:06:35;;;;;;;8.57;2.50;;;;;;;15.36;36.41;101988.84;5070684;28;20056;-78
2021/04/17 11:09:24;;;;;;;5.03;2.42;;;;;;;15.10;36.69;101976.09;5064782;28;20037;-80
2021/04/17 11:11:55;;;;;;;7.30;2.60;;;;;;;14.90;36.71;101973.75;5059606;28;20395;-79
2021/04/17 11:14:23;;;;;;;6.95;2.60;;;;;;;14.93;37.59;101973.59;5064903;28;20032;-77
2021/04/17 11:16:51;;;;;;;5.00;2.25;;;;;;;14.80;36.33;101973.47;5066279;28;20028;-79
2021/04/17 11:19:34;;;;;;;6.18;3.30;;;;;;;14.89;37.02;101962.06;5048632;28;20024;-77
2021/04/17 11:22:24;;;;;;;10.43;2.95;;;;;;;15.05;37.69;101961.13;5068881;28;20396;-79
2021/04/17 11:24:58;;;;;;;7.20;2.83;;;;;;;14.86;36.57;101956.00;5070629;28;20032;-78
2021/04/17 11:27:25;;;;;;;6.35;2.85;;;;;;;14.68;35.95;101957.16;5066717;28;20520;-78
2021/04/17 11:29:51;;;;;;;6.90;2.75;;;;;;;15.04;37.88;101945.88;5083859;28;20121;-79
2021/04/17 11:32:16;;;;;;;12.98;3.83;;;;;;;14.74;36.50;101945.97;5066663;28;20115;-79